Řízení letového provozu České republiky
OPMET data - Ceska Republika Aktualizace: 16.12.2017 22:08:11  UTC
SIGMET / AIRMET - NIL
Warning / Vystraha - NIL
 
METAR / SPECI
METAR LKCV 162200Z 24008KT CAVOK 01/M01 Q1012 NOSIG=
METAR LKKB 162200Z 24009KT CAVOK 02/M02 Q1013=
METAR LKKU NIL
METAR LKKV 162200Z 25009KT 9999 SCT006 OVC015 M01/M01 Q1012 R29/////// RMK REG QNH 1008=
METAR LKLN 162200Z AUTO 24005KT 210V280 9999 BKN069 01/M01 Q1013=
METAR LKMT 162200Z 20006KT CAVOK 01/M02 Q1012 NOSIG RMK REG QNH 1008=
METAR LKNA 162200Z 27009KT CAVOK M01/M02 Q1012=
METAR LKPD 162200Z 23006KT 9999 FEW040 BKN070 M00/M01 Q1012=
METAR LKPR 162200Z 23011KT CAVOK 01/M02 Q1012 NOSIG RMK REG QNH 1008=
METAR LKTB 162200Z VRB02KT 9999 BKN033 00/M02 Q1013 NOSIG RMK REG QNH 1008=
METAR LKVO NIL
TAF
TAF LKCV 161700Z 1618/1718 25006KT CAVOK      BECMG 1618/1620 BKN020      PROB40 TEMPO 1618/1700 6000 -SNRA BKN015      TEMPO 1710/1717 2000 SNRA BKN010=
TAF LKKB 161700Z 1618/1718 25010KT 9999 SCT025 BKN045      TEMPO 1618/1707 7000 SNRA SCT020 OVC035      TEMPO 1618/1704 5000 SN BKN015 OVC030      BECMG 1712/1714 29008KT      TEMPO 1712/1718 7000 SHSNRA SCT025 BKN035=
TAF LKKU NIL
TAF LKKV 161700Z 1618/1800 25004KT 9999 BKN015      TEMPO 1618/1800 4000 -SN BKN005      PROB30 TEMPO 1620/1708 1400 SN BKN002      PROB30 TEMPO 1708/1720 1400 SHSN FEW002TCU BKN003=
TAF LKLN NIL
TAF LKMT 161700Z 1618/1800 21004KT 9999 BKN033      TEMPO 1618/1700 SCT033      TEMPO 1701/1715 5000 -SN BKN012      BECMG 1714/1716 VRB02KT=
TAF AMD LKNA 160500Z 1607/1706 CNL=
TAF LKPD 161700Z 1618/1718 26006KT CAVOK      BECMG 1618/1621 27008KT BKN040      PROB30 TEMPO 1618/1703 5000 SNRA BKN012      TEMPO 1705/1718 5000 SNRA BKN012=
TAF LKPR 161700Z 1618/1800 26010KT 9999 BKN033      TEMPO 1618/1800 7000 -SN BKN014      PROB30 TEMPO 1621/1703 2500 SN BKN007      PROB30 TEMPO 1712/1719 2500 SHSN FEW007TCU BKN009      BECMG 1715/1718 30007KT=
TAF LKTB 161700Z 1618/1800 VRB02KT 9999 SCT036      TEMPO 1618/1800 BKN036      BECMG 1701/1703 31004KT      PROB30 TEMPO 1702/1706 5000 -SN BKN020=
TAF LKVO NIL